createdAt,value
2019-02-28T00:00:58.927Z,37.10
2019-02-28T00:01:58.901Z,37.19
2019-02-28T00:02:58.892Z,37.19
2019-02-28T00:03:59.155Z,37.19
2019-02-28T00:04:58.874Z,37.19
2019-02-28T00:05:59.067Z,37.19
2019-02-28T00:06:58.839Z,37.10
2019-02-28T00:07:58.834Z,37.29
2019-02-28T00:08:58.815Z,37.19
2019-02-28T00:09:58.836Z,37.19
2019-02-28T00:10:58.794Z,37.19
2019-02-28T00:11:58.782Z,37.10
2019-02-28T00:12:58.771Z,37.29
2019-02-28T00:13:58.768Z,37.29
2019-02-28T00:14:59.383Z,37.29
2019-02-28T00:16:00.162Z,37.19
2019-02-28T00:16:58.727Z,37.40
2019-02-28T00:17:58.714Z,37.19
2019-02-28T00:18:58.705Z,37.49
2019-02-28T00:19:58.738Z,37.49
2019-02-28T00:20:58.701Z,37.19
2019-02-28T00:21:58.671Z,37.10
2019-02-28T00:22:58.659Z,37.10
2019-02-28T00:23:58.647Z,36.99
2019-02-28T00:25:01.104Z,37.10
2019-02-28T00:25:59.658Z,36.99
2019-02-28T00:26:58.614Z,36.99
2019-02-28T00:27:58.607Z,37.10
2019-02-28T00:29:00.481Z,37.49
2019-02-28T00:29:58.582Z,36.99
2019-02-28T00:30:58.588Z,36.90
2019-02-28T00:31:58.571Z,36.99
2019-02-28T00:32:59.432Z,37.29
2019-02-28T00:33:58.541Z,36.90
2019-02-28T00:34:58.533Z,37.49
2019-02-28T00:35:58.532Z,36.90
2019-02-28T00:36:58.503Z,37.19
2019-02-28T00:37:58.505Z,36.99
2019-02-28T00:38:59.983Z,36.90
2019-02-28T00:39:58.475Z,37.40
2019-02-28T00:40:58.474Z,36.99
2019-02-28T00:41:58.448Z,36.79
2019-02-28T00:42:58.437Z,36.90
2019-02-28T00:43:58.446Z,36.79
2019-02-28T00:45:02.367Z,36.79
2019-02-28T00:45:59.416Z,36.79
2019-02-28T00:46:58.398Z,36.69
2019-02-28T00:47:58.386Z,36.69
2019-02-28T00:48:58.372Z,36.60
2019-02-28T00:49:58.369Z,36.69
2019-02-28T00:50:59.148Z,36.60
2019-02-28T00:52:01.557Z,36.60
2019-02-28T00:52:58.328Z,37.10
2019-02-28T00:53:58.314Z,36.60
2019-02-28T00:54:58.312Z,36.49
2019-02-28T00:55:58.314Z,36.60
2019-02-28T00:56:58.282Z,36.69
2019-02-28T00:57:58.271Z,37.10
2019-02-28T00:59:00.535Z,36.90
2019-02-28T00:59:58.249Z,37.10
2019-02-28T01:00:58.253Z,36.79
2019-02-28T01:01:58.236Z,36.69
2019-02-28T01:02:58.233Z,37.10
2019-02-28T01:03:59.052Z,36.60
2019-02-28T01:04:58.192Z,36.60
2019-02-28T01:05:58.195Z,36.60
2019-02-28T01:06:58.170Z,36.60
2019-02-28T01:07:58.164Z,36.79
2019-02-28T01:08:58.148Z,36.69
2019-02-28T01:09:58.135Z,36.60
2019-02-28T01:10:58.143Z,36.60
2019-02-28T01:11:58.116Z,36.49
2019-02-28T01:12:58.104Z,36.60
2019-02-28T01:14:01.527Z,36.79
2019-02-28T01:14:58.087Z,36.60
2019-02-28T01:15:58.092Z,36.69
2019-02-28T01:16:58.059Z,36.69
2019-02-28T01:18:00.495Z,36.69
2019-02-28T01:18:58.036Z,36.60
2019-02-28T01:19:58.025Z,36.69
2019-02-28T01:20:58.041Z,36.69
2019-02-28T01:21:58.003Z,36.69
2019-02-28T01:22:58.677Z,36.69
2019-02-28T01:24:00.683Z,36.69
2019-02-28T01:24:57.969Z,36.60
2019-02-28T01:25:57.993Z,36.69
2019-02-28T01:26:57.956Z,36.60
2019-02-28T01:27:57.935Z,36.90
2019-02-28T01:29:01.371Z,37.10
2019-02-28T01:29:57.914Z,36.99
2019-02-28T01:30:57.922Z,36.90
2019-02-28T01:31:57.898Z,36.99
2019-02-28T01:32:57.887Z,36.91
2019-02-28T01:33:58.738Z,36.90
2019-02-28T01:34:57.859Z,36.90
2019-02-28T01:35:57.882Z,37.19
2019-02-28T01:36:57.837Z,37.21
2019-02-28T01:37:57.825Z,36.40
2019-02-28T01:38:58.743Z,36.10
2019-02-28T01:39:57.803Z,36.60
2019-02-28T01:40:57.792Z,36.29
2019-02-28T01:41:57.795Z,36.61
2019-02-28T01:42:57.771Z,36.61
2019-02-28T01:43:57.763Z,36.60
2019-02-28T01:44:57.757Z,36.11
2019-02-28T01:45:57.736Z,35.99
2019-02-28T01:46:57.744Z,35.99
2019-02-28T01:47:57.714Z,35.69
2019-02-28T01:48:57.702Z,35.80
2019-02-28T01:49:58.737Z,35.60
2019-02-28T01:51:00.785Z,35.99
2019-02-28T01:51:57.685Z,36.29
2019-02-28T01:52:57.658Z,36.11
2019-02-28T01:53:57.648Z,36.40
2019-02-28T01:54:58.552Z,36.11
2019-02-28T01:56:02.199Z,36.29
2019-02-28T01:56:58.637Z,36.19
2019-02-28T01:57:57.601Z,36.49
2019-02-28T01:58:57.590Z,36.40
2019-02-28T01:59:57.581Z,36.29
2019-02-28T02:00:58.180Z,36.29
2019-02-28T02:01:57.582Z,36.19
2019-02-28T02:02:57.553Z,36.29
2019-02-28T02:03:57.534Z,36.49
2019-02-28T02:04:57.525Z,36.29
2019-02-28T02:05:57.521Z,36.49
2019-02-28T02:06:59.944Z,36.60
2019-02-28T02:07:57.490Z,36.49
2019-02-28T02:08:57.487Z,36.19
2019-02-28T02:09:57.469Z,35.80
2019-02-28T02:10:57.458Z,35.80
2019-02-28T02:11:59.033Z,35.89
2019-02-28T02:12:57.441Z,35.80
2019-02-28T02:13:57.428Z,35.10
2019-02-28T02:14:57.422Z,35.99
2019-02-28T02:15:57.402Z,35.80
2019-02-28T02:16:58.223Z,35.80
2019-02-28T02:17:57.379Z,35.89
2019-02-28T02:18:57.368Z,35.89
2019-02-28T02:19:57.357Z,35.80
2019-02-28T02:21:00.017Z,35.80
2019-02-28T02:21:57.352Z,35.80
2019-02-28T02:22:57.324Z,36.19
2019-02-28T02:23:57.313Z,35.19
2019-02-28T02:24:59.326Z,35.80
2019-02-28T02:25:58.290Z,35.30
2019-02-28T02:26:57.309Z,35.80
2019-02-28T02:27:57.269Z,35.99
2019-02-28T02:29:00.954Z,36.01
2019-02-28T02:29:57.246Z,35.80
2019-02-28T02:30:57.236Z,35.89
2019-02-28T02:32:01.339Z,35.89
2019-02-28T02:32:58.218Z,35.81
2019-02-28T02:33:57.209Z,35.51
2019-02-28T02:34:57.191Z,35.80
2019-02-28T02:35:57.181Z,35.51
2019-02-28T02:36:57.186Z,36.01
2019-02-28T02:37:57.173Z,35.99
2019-02-28T02:38:57.154Z,35.89
2019-02-28T02:39:57.143Z,36.01
2019-02-28T02:41:00.524Z,35.99
2019-02-28T02:41:57.127Z,35.91
2019-02-28T02:42:57.103Z,35.81
2019-02-28T02:43:57.093Z,36.11
2019-02-28T02:44:57.080Z,35.81
2019-02-28T02:45:57.079Z,35.91
2019-02-28T02:46:57.092Z,35.99
2019-02-28T02:47:57.045Z,35.81
2019-02-28T02:48:57.039Z,36.01
2019-02-28T02:49:57.792Z,35.81
2019-02-28T02:50:57.014Z,36.01
2019-02-28T02:51:57.028Z,36.01
2019-02-28T02:52:56.992Z,36.01
2019-02-28T02:53:56.978Z,35.81
2019-02-28T02:54:56.970Z,35.71
2019-02-28T02:56:03.599Z,35.81
2019-02-28T02:56:57.964Z,35.11
2019-02-28T02:57:56.941Z,35.81
2019-02-28T02:59:01.187Z,35.01
2019-02-28T02:59:57.909Z,35.21
2019-02-28T03:00:56.899Z,35.01
2019-02-28T03:01:57.359Z,35.31
2019-02-28T03:02:56.880Z,35.21
2019-02-28T03:03:56.881Z,35.21
2019-02-28T03:04:58.517Z,35.61
2019-02-28T03:05:56.845Z,35.41
2019-02-28T03:06:56.838Z,35.41
2019-02-28T03:07:59.812Z,35.21
2019-02-28T03:08:56.812Z,35.41
2019-02-28T03:09:56.810Z,35.61
2019-02-28T03:10:56.797Z,35.61
2019-02-28T03:11:57.728Z,35.41
2019-02-28T03:12:56.782Z,35.71
2019-02-28T03:13:56.766Z,35.71
2019-02-28T03:14:56.746Z,35.51
2019-02-28T03:15:59.276Z,35.61
2019-02-28T03:16:56.727Z,35.41
2019-02-28T03:17:56.740Z,35.81
2019-02-28T03:18:58.309Z,35.31
2019-02-28T03:19:56.689Z,35.41
2019-02-28T03:20:56.680Z,35.41
2019-02-28T03:21:56.679Z,35.31
2019-02-28T03:22:56.677Z,35.60
2019-02-28T03:23:56.645Z,35.61
2019-02-28T03:24:56.641Z,35.51
2019-02-28T03:25:56.626Z,35.21
2019-02-28T03:26:56.612Z,35.11
2019-02-28T03:27:56.915Z,35.61
2019-02-28T03:28:56.587Z,35.41
2019-02-28T03:29:56.579Z,35.11
2019-02-28T03:30:56.568Z,35.51
2019-02-28T03:31:59.395Z,35.21
2019-02-28T03:32:56.560Z,35.31
2019-02-28T03:34:09.886Z,35.19
2019-02-28T03:34:59.255Z,35.19
2019-02-28T03:35:56.509Z,35.19
2019-02-28T03:36:57.550Z,35.31
2019-02-28T03:37:56.502Z,35.19
2019-02-28T03:38:56.479Z,35.21
2019-02-28T03:40:02.438Z,35.21
2019-02-28T03:40:57.471Z,35.31
2019-02-28T03:41:56.448Z,35.31
2019-02-28T03:42:56.448Z,35.89
2019-02-28T03:43:56.422Z,35.60
2019-02-28T03:44:58.074Z,35.71
2019-02-28T03:45:56.404Z,35.71
2019-02-28T03:46:56.392Z,35.91
2019-02-28T03:47:58.719Z,35.71
2019-02-28T03:48:56.367Z,35.69
2019-02-28T03:49:56.353Z,34.99
2019-02-28T03:50:56.685Z,35.11
2019-02-28T03:51:56.342Z,35.61
2019-02-28T03:52:56.341Z,35.89
2019-02-28T03:53:56.927Z,34.71
2019-02-28T03:54:56.299Z,34.69
2019-02-28T03:55:56.290Z,34.89
2019-02-28T03:56:56.280Z,34.71
2019-02-28T03:57:56.289Z,35.19
2019-02-28T03:58:56.265Z,35.21
2019-02-28T03:59:56.979Z,34.89
2019-02-28T04:00:56.236Z,35.21
2019-02-28T04:01:56.224Z,35.21
2019-02-28T04:02:58.632Z,34.69
2019-02-28T04:03:56.209Z,35.11
2019-02-28T04:04:56.188Z,35.11
2019-02-28T04:06:03.359Z,35.21
2019-02-28T04:06:57.168Z,35.01
2019-02-28T04:07:56.184Z,35.01
2019-02-28T04:08:56.144Z,35.11
2019-02-28T04:09:56.143Z,35.21
2019-02-28T04:10:56.123Z,35.01
2019-02-28T04:11:56.113Z,34.99
2019-02-28T04:12:56.133Z,35.11
2019-02-28T04:13:56.925Z,34.71
2019-02-28T04:14:56.078Z,34.91
2019-02-28T04:16:08.809Z,35.21
2019-02-28T04:16:57.053Z,35.21
2019-02-28T04:17:56.077Z,34.91
2019-02-28T04:18:56.031Z,35.31
2019-02-28T04:20:00.103Z,35.11
2019-02-28T04:20:56.014Z,35.21
2019-02-28T04:21:56.013Z,35.21
2019-02-28T04:22:59.962Z,35.21
2019-02-28T04:23:55.992Z,34.71
2019-02-28T04:24:55.966Z,35.21
2019-02-28T04:25:56.856Z,34.71
2019-02-28T04:26:55.946Z,35.11
2019-02-28T04:27:55.940Z,34.71
2019-02-28T04:28:55.946Z,35.11
2019-02-28T04:29:55.912Z,34.71
2019-02-28T04:30:55.896Z,34.61
2019-02-28T04:31:57.925Z,34.11
2019-02-28T04:33:01.080Z,34.81
2019-02-28T04:33:56.901Z,35.01
2019-02-28T04:34:55.870Z,35.21
2019-02-28T04:35:56.882Z,35.31
2019-02-28T04:36:55.832Z,35.41
2019-02-28T04:37:55.819Z,35.21
2019-02-28T04:38:55.823Z,35.11
2019-02-28T04:39:55.809Z,35.81
2019-02-28T04:40:58.779Z,35.61
2019-02-28T04:41:55.775Z,35.63
2019-02-28T04:42:55.763Z,35.51
2019-02-28T04:43:55.768Z,35.41
2019-02-28T04:44:55.743Z,35.61
2019-02-28T04:45:57.715Z,35.61
2019-02-28T04:46:55.719Z,35.61
2019-02-28T04:47:55.710Z,35.41
2019-02-28T04:48:55.724Z,35.61
2019-02-28T04:49:56.851Z,35.71
2019-02-28T04:50:55.675Z,35.41
2019-02-28T04:51:55.669Z,35.71
2019-02-28T04:52:55.672Z,35.61
2019-02-28T04:53:55.656Z,35.61
2019-02-28T04:54:55.629Z,35.61
2019-02-28T04:55:55.619Z,35.71
2019-02-28T04:56:55.608Z,35.51
2019-02-28T04:57:55.603Z,35.51
2019-02-28T04:58:56.417Z,35.51
2019-02-28T04:59:55.575Z,35.81
2019-02-28T05:00:55.563Z,35.81
2019-02-28T05:01:55.554Z,35.81
2019-02-28T05:02:55.544Z,35.11
2019-02-28T05:03:55.556Z,35.31
2019-02-28T05:04:55.520Z,35.31
2019-02-28T05:05:55.508Z,35.41
2019-02-28T05:06:55.927Z,35.51
2019-02-28T05:07:55.486Z,35.61
2019-02-28T05:08:55.495Z,35.41
2019-02-28T05:09:55.468Z,35.21
2019-02-28T05:10:55.806Z,35.21
2019-02-28T05:11:55.456Z,35.21
2019-02-28T05:12:55.437Z,35.31
2019-02-28T05:13:55.438Z,35.41
2019-02-28T05:14:58.405Z,35.31
2019-02-28T05:15:56.407Z,35.91
2019-02-28T05:16:55.385Z,35.81
2019-02-28T05:17:55.854Z,35.71
2019-02-28T05:18:58.176Z,34.91
2019-02-28T05:19:56.350Z,35.01
2019-02-28T05:20:55.341Z,35.01
2019-02-28T05:21:55.335Z,35.21
2019-02-28T05:22:55.317Z,34.91
2019-02-28T05:23:55.329Z,34.71
2019-02-28T05:24:55.319Z,34.81
2019-02-28T05:25:55.283Z,35.31
2019-02-28T05:26:57.279Z,35.21
2019-02-28T05:27:55.274Z,35.21
2019-02-28T05:28:55.284Z,35.01
2019-02-28T05:29:55.240Z,35.01
2019-02-28T05:30:55.230Z,35.21
2019-02-28T05:31:55.218Z,35.21
2019-02-28T05:32:55.207Z,34.91
2019-02-28T05:33:55.209Z,35.41
2019-02-28T05:34:55.220Z,35.41
2019-02-28T05:35:57.148Z,35.31
2019-02-28T05:36:55.167Z,35.11
2019-02-28T05:37:55.156Z,35.41
2019-02-28T05:38:56.537Z,35.11
2019-02-28T05:39:55.152Z,35.41
2019-02-28T05:40:55.581Z,35.41
2019-02-28T05:41:55.108Z,35.51
2019-02-28T05:42:58.436Z,34.71
2019-02-28T05:43:55.083Z,34.81
2019-02-28T05:44:55.089Z,33.41
2019-02-28T05:45:55.069Z,33.71
2019-02-28T05:46:57.516Z,34.11
2019-02-28T05:47:55.047Z,33.41
2019-02-28T05:48:55.028Z,33.71
2019-02-28T05:49:55.033Z,33.51
2019-02-28T05:50:55.023Z,32.81
2019-02-28T05:51:58.810Z,33.11
2019-02-28T05:52:54.983Z,33.11
2019-02-28T05:53:54.974Z,32.91
2019-02-28T05:54:54.979Z,32.82
2019-02-28T05:55:59.050Z,32.82
2019-02-28T05:56:54.938Z,33.33
2019-02-28T05:57:54.937Z,33.23
2019-02-28T05:58:54.916Z,33.53
2019-02-28T05:59:54.920Z,34.03
2019-02-28T06:00:54.894Z,34.23
2019-02-28T06:01:54.888Z,33.73
2019-02-28T06:02:58.017Z,33.93
2019-02-28T06:03:54.863Z,34.43
2019-02-28T06:04:54.898Z,34.53
2019-02-28T06:05:54.839Z,34.63
2019-02-28T06:06:55.603Z,34.73
2019-02-28T06:07:54.820Z,34.43
2019-02-28T06:08:54.804Z,35.23
2019-02-28T06:09:54.808Z,34.23
2019-02-28T06:10:56.091Z,35.03
2019-02-28T06:11:55.773Z,34.73
2019-02-28T06:12:54.763Z,34.93
2019-02-28T06:13:54.748Z,34.03
2019-02-28T06:14:54.753Z,34.23
2019-02-28T06:15:54.727Z,34.51
2019-02-28T06:16:54.730Z,34.23
2019-02-28T06:17:55.660Z,34.63
2019-02-28T06:18:54.694Z,34.01
2019-02-28T06:19:54.699Z,34.21
2019-02-28T06:20:54.672Z,34.71
2019-02-28T06:21:56.430Z,35.41
2019-02-28T06:22:54.656Z,35.11
2019-02-28T06:23:54.648Z,34.51
2019-02-28T06:24:54.642Z,35.11
2019-02-28T06:25:55.758Z,34.41
2019-02-28T06:26:54.604Z,34.81
2019-02-28T06:27:54.593Z,34.71
2019-02-28T06:28:54.592Z,34.59
2019-02-28T06:29:54.590Z,33.39
2019-02-28T06:30:54.564Z,33.39
2019-02-28T06:31:54.549Z,33.89
2019-02-28T06:32:57.827Z,34.19
2019-02-28T06:33:54.742Z,34.09
2019-02-28T06:34:54.541Z,34.19
2019-02-28T06:35:54.622Z,33.20
2019-02-28T06:36:54.494Z,33.20
2019-02-28T06:37:54.483Z,33.39
2019-02-28T06:38:55.493Z,33.61
2019-02-28T06:39:54.477Z,33.89
2019-02-28T06:40:54.465Z,33.09
2019-02-28T06:41:54.438Z,33.59
2019-02-28T06:42:55.880Z,33.09
2019-02-28T06:43:54.415Z,33.01
2019-02-28T06:44:54.418Z,33.20
2019-02-28T06:45:54.393Z,33.20
2019-02-28T06:46:54.411Z,33.39
2019-02-28T06:47:54.370Z,33.21
2019-02-28T06:48:54.359Z,33.41
2019-02-28T06:49:54.364Z,33.31
2019-02-28T06:50:54.337Z,33.21
2019-02-28T06:51:54.327Z,33.09
2019-02-28T06:52:56.441Z,33.31
2019-02-28T06:53:54.303Z,33.31
2019-02-28T06:54:54.410Z,33.01
2019-02-28T06:55:54.281Z,33.51
2019-02-28T06:56:55.295Z,33.21
2019-02-28T06:57:54.258Z,33.31
2019-02-28T06:58:54.253Z,33.41
2019-02-28T06:59:54.238Z,32.81
2019-02-28T07:00:54.242Z,32.91
2019-02-28T07:01:57.501Z,32.61
2019-02-28T07:02:54.204Z,33.01
2019-02-28T07:03:54.194Z,33.11
2019-02-28T07:04:54.197Z,33.01
2019-02-28T07:05:54.186Z,32.81
2019-02-28T07:06:54.162Z,32.31
2019-02-28T07:07:54.149Z,32.11
2019-02-28T07:08:54.140Z,32.21
2019-02-28T07:09:54.129Z,32.91
2019-02-28T07:10:54.160Z,32.12
2019-02-28T07:11:54.741Z,32.21
2019-02-28T07:12:54.094Z,32.21
2019-02-28T07:13:54.080Z,32.53
2019-02-28T07:14:54.082Z,32.51
2019-02-28T07:15:55.591Z,32.51
2019-02-28T07:16:54.055Z,31.73
2019-02-28T07:17:54.037Z,32.53
2019-02-28T07:18:54.024Z,31.61
2019-02-28T07:19:54.013Z,31.23
2019-02-28T07:20:54.025Z,32.41
2019-02-28T07:21:54.009Z,31.12
2019-02-28T07:22:55.605Z,31.61
2019-02-28T07:23:53.971Z,31.93
2019-02-28T07:24:53.958Z,31.82
2019-02-28T07:25:53.964Z,31.62
2019-02-28T07:26:53.941Z,31.43
2019-02-28T07:27:53.925Z,31.43
2019-02-28T07:28:53.923Z,31.23
2019-02-28T07:29:53.904Z,31.62
2019-02-28T07:30:53.906Z,31.52
2019-02-28T07:31:59.826Z,31.93
2019-02-28T07:32:54.867Z,32.12
2019-02-28T07:33:53.858Z,31.12
2019-02-28T07:34:55.015Z,31.32
2019-02-28T07:35:53.858Z,31.02
2019-02-28T07:36:53.829Z,31.23
2019-02-28T07:37:54.625Z,31.23
2019-02-28T07:38:53.801Z,31.23
2019-02-28T07:39:53.790Z,31.43
2019-02-28T07:40:53.804Z,30.73
2019-02-28T07:41:53.769Z,31.12
2019-02-28T07:42:53.760Z,30.73
2019-02-28T07:43:53.746Z,30.73
2019-02-28T07:44:57.819Z,31.23
2019-02-28T07:45:54.737Z,30.22
2019-02-28T07:46:53.722Z,30.32
2019-02-28T07:47:53.702Z,31.73
2019-02-28T07:48:53.691Z,31.12
2019-02-28T07:49:53.697Z,31.12
2019-02-28T07:50:53.683Z,31.52
2019-02-28T07:51:56.901Z,31.52
2019-02-28T07:52:53.651Z,30.12
2019-02-28T07:53:53.639Z,31.52
2019-02-28T07:54:55.787Z,30.73
2019-02-28T07:55:53.627Z,31.23
2019-02-28T07:56:53.618Z,31.02
2019-02-28T07:57:56.383Z,31.02
2019-02-28T07:58:53.620Z,31.02
2019-02-28T07:59:53.568Z,31.52
2019-02-28T08:00:53.747Z,30.82
2019-02-28T08:01:53.549Z,30.93
2019-02-28T08:02:53.537Z,31.62
2019-02-28T08:03:53.523Z,31.82
2019-02-28T08:04:54.590Z,30.73
2019-02-28T08:05:53.518Z,30.52
2019-02-28T08:06:54.825Z,31.02
2019-02-28T08:07:53.482Z,31.73
2019-02-28T08:08:53.469Z,31.93
2019-02-28T08:09:53.458Z,31.02
2019-02-28T08:10:53.487Z,31.93
2019-02-28T08:11:55.355Z,30.43
2019-02-28T08:12:53.426Z,31.12
2019-02-28T08:13:55.477Z,31.02
2019-02-28T08:14:53.400Z,31.52
2019-02-28T08:15:56.826Z,31.23
2019-02-28T08:16:54.400Z,31.32
2019-02-28T08:17:53.370Z,31.43
2019-02-28T08:18:53.357Z,31.32
2019-02-28T08:19:53.344Z,31.23
2019-02-28T08:20:53.333Z,31.43
2019-02-28T08:21:53.350Z,31.43
2019-02-28T08:22:56.516Z,31.11
2019-02-28T08:23:53.300Z,31.31
2019-02-28T08:24:53.292Z,32.01
2019-02-28T08:25:53.276Z,31.52
2019-02-28T08:26:54.242Z,31.21
2019-02-28T08:27:53.256Z,30.93
2019-02-28T08:28:53.251Z,30.91
2019-02-28T08:29:53.235Z,31.51
2019-02-28T08:30:55.298Z,31.43
2019-02-28T08:31:53.227Z,31.32
2019-02-28T08:32:53.203Z,31.81
2019-02-28T08:33:53.189Z,31.81
2019-02-28T08:34:55.596Z,31.71
2019-02-28T08:35:54.165Z,31.91
2019-02-28T08:36:53.170Z,31.62
2019-02-28T08:37:57.139Z,31.61
2019-02-28T08:38:53.150Z,31.41
2019-02-28T08:39:53.123Z,32.43
2019-02-28T08:40:53.117Z,31.62
2019-02-28T08:41:53.115Z,31.73
2019-02-28T08:42:53.090Z,32.21
2019-02-28T08:43:53.077Z,31.31
2019-02-28T08:44:58.139Z,31.62
2019-02-28T08:45:54.053Z,31.81
2019-02-28T08:46:53.076Z,31.61
2019-02-28T08:47:56.724Z,31.61
2019-02-28T08:48:53.021Z,31.82
2019-02-28T08:49:53.013Z,31.62
2019-02-28T08:50:55.851Z,31.73
2019-02-28T08:51:53.006Z,32.03
2019-02-28T08:52:52.986Z,31.62
2019-02-28T08:53:52.967Z,31.71
2019-02-28T08:54:52.955Z,31.91
2019-02-28T08:55:52.945Z,31.91
2019-02-28T08:56:52.947Z,32.01
2019-02-28T08:57:56.961Z,31.41
2019-02-28T08:58:53.918Z,31.41
2019-02-28T08:59:56.243Z,31.41
2019-02-28T09:00:52.889Z,31.71
2019-02-28T09:01:52.891Z,31.51
2019-02-28T09:02:53.839Z,31.91
2019-02-28T09:03:52.856Z,31.79
2019-02-28T09:04:52.853Z,31.40
2019-02-28T09:05:52.833Z,31.40
2019-02-28T09:06:52.836Z,32.09
2019-02-28T09:07:52.816Z,32.40
2019-02-28T09:08:52.804Z,32.40
2019-02-28T09:09:52.788Z,32.70
2019-02-28T09:10:52.786Z,32.50
2019-02-28T09:11:57.902Z,32.40
2019-02-28T09:12:53.753Z,32.50
2019-02-28T09:13:52.745Z,31.88
2019-02-28T09:14:55.342Z,31.88
2019-02-28T09:15:52.720Z,31.79
2019-02-28T09:16:52.735Z,31.68
2019-02-28T09:17:58.245Z,31.58
2019-02-28T09:18:53.691Z,31.88
2019-02-28T09:19:52.677Z,31.68
2019-02-28T09:20:52.668Z,31.68
2019-02-28T09:21:53.681Z,31.76
2019-02-28T09:22:52.678Z,31.28
2019-02-28T09:23:52.670Z,31.28
2019-02-28T09:24:52.621Z,31.98
2019-02-28T09:25:53.309Z,31.78
2019-02-28T09:26:52.612Z,31.58
2019-02-28T09:27:52.592Z,31.78
2019-02-28T09:28:52.583Z,31.88
2019-02-28T09:29:54.711Z,31.18
2019-02-28T09:30:52.557Z,31.08
2019-02-28T09:31:52.560Z,31.08
2019-02-28T09:32:52.532Z,31.58
2019-02-28T09:33:55.435Z,30.78
2019-02-28T09:34:53.516Z,31.78
2019-02-28T09:35:52.515Z,31.68
2019-02-28T09:36:56.607Z,32.08
2019-02-28T09:37:52.495Z,31.58
2019-02-28T09:38:56.990Z,31.58
2019-02-28T09:39:54.324Z,31.38
2019-02-28T09:40:52.465Z,31.08
2019-02-28T09:41:52.434Z,30.68
2019-02-28T09:42:52.438Z,30.98
2019-02-28T09:43:52.411Z,31.18
2019-02-28T09:44:52.401Z,31.58
2019-02-28T09:45:52.389Z,31.88
2019-02-28T09:46:52.386Z,31.68
2019-02-28T09:47:52.382Z,30.98
2019-02-28T09:48:52.355Z,30.88
2019-02-28T09:49:52.354Z,30.18
2019-02-28T09:50:57.944Z,31.78
2019-02-28T09:51:53.320Z,31.58
2019-02-28T09:52:52.345Z,31.20
2019-02-28T09:53:52.301Z,30.90
2019-02-28T09:54:52.290Z,31.28
2019-02-28T09:55:52.284Z,31.18
2019-02-28T09:56:52.283Z,31.40
2019-02-28T09:57:54.692Z,31.28
2019-02-28T09:58:52.255Z,31.58
2019-02-28T09:59:52.234Z,30.88
2019-02-28T10:00:52.225Z,31.29
2019-02-28T10:02:00.945Z,31.08
2019-02-28T10:02:53.235Z,31.08
2019-02-28T10:03:55.288Z,31.29
2019-02-28T10:04:52.188Z,31.29
2019-02-28T10:05:52.168Z,31.18
2019-02-28T10:06:52.274Z,31.28
2019-02-28T10:07:52.168Z,31.59
2019-02-28T10:08:52.139Z,31.18
2019-02-28T10:09:52.125Z,30.88
2019-02-28T10:10:52.403Z,31.48
2019-02-28T10:11:52.104Z,32.29
2019-02-28T10:12:52.105Z,32.40
2019-02-28T10:13:53.114Z,31.99
2019-02-28T10:14:52.109Z,30.99
2019-02-28T10:15:52.068Z,31.40
2019-02-28T10:16:52.638Z,31.29
2019-02-28T10:17:52.053Z,31.49
2019-02-28T10:18:52.027Z,31.40
2019-02-28T10:19:52.363Z,30.99
2019-02-28T10:20:52.004Z,31.70
2019-02-28T10:21:52.373Z,31.70
2019-02-28T10:22:52.007Z,31.90
2019-02-28T10:23:53.400Z,31.49
2019-02-28T10:24:51.960Z,32.09
2019-02-28T10:25:51.953Z,32.70
2019-02-28T10:26:52.363Z,32.59
2019-02-28T10:27:51.940Z,32.29
2019-02-28T10:28:51.921Z,33.39
2019-02-28T10:29:51.905Z,33.39
2019-02-28T10:30:51.894Z,33.20
2019-02-28T10:31:51.883Z,33.50
2019-02-28T10:32:51.904Z,33.39
2019-02-28T10:33:52.485Z,33.70
2019-02-28T10:34:51.856Z,32.79
2019-02-28T10:35:51.843Z,32.89
2019-02-28T10:36:51.838Z,33.50
2019-02-28T10:37:57.007Z,32.89
2019-02-28T10:38:52.819Z,33.00
2019-02-28T10:39:51.794Z,32.79
2019-02-28T10:40:52.430Z,32.70
2019-02-28T10:41:51.773Z,33.29
2019-02-28T10:42:51.772Z,32.79
2019-02-28T10:43:54.914Z,33.29
2019-02-28T10:44:51.738Z,32.89
2019-02-28T10:45:51.734Z,33.58
2019-02-28T10:46:53.938Z,33.09
2019-02-28T10:47:51.714Z,33.70
2019-02-28T10:48:51.718Z,33.50
2019-02-28T10:49:51.685Z,32.98
2019-02-28T10:50:51.674Z,33.00
2019-02-28T10:51:51.674Z,32.89
2019-02-28T10:52:51.655Z,32.79
2019-02-28T10:53:51.655Z,33.20
2019-02-28T10:54:51.639Z,33.50
2019-02-28T10:55:54.333Z,33.09
2019-02-28T10:56:52.607Z,33.09
2019-02-28T10:57:51.601Z,33.50
2019-02-28T10:58:51.604Z,33.48
2019-02-28T10:59:51.578Z,33.50
2019-02-28T11:00:51.568Z,34.09
2019-02-28T11:01:51.556Z,33.70
2019-02-28T11:02:54.178Z,33.89
2019-02-28T11:03:52.544Z,33.80
2019-02-28T11:04:51.529Z,34.08
2019-02-28T11:05:54.224Z,33.48
2019-02-28T11:06:51.511Z,33.20
2019-02-28T11:07:51.489Z,33.18
2019-02-28T11:08:51.492Z,33.09
2019-02-28T11:09:51.467Z,33.48
2019-02-28T11:10:51.457Z,33.08
2019-02-28T11:11:51.447Z,33.70
2019-02-28T11:12:54.242Z,33.38
2019-02-28T11:13:52.434Z,33.18
2019-02-28T11:14:51.412Z,32.98
2019-02-28T11:15:51.449Z,32.68
2019-02-28T11:16:51.394Z,32.78
2019-02-28T11:17:51.380Z,33.18
2019-02-28T11:18:51.401Z,32.28
2019-02-28T11:19:51.984Z,32.28
2019-02-28T11:20:51.353Z,32.38
2019-02-28T11:21:51.337Z,32.28
2019-02-28T11:22:51.326Z,32.48
2019-02-28T11:23:51.331Z,32.58
2019-02-28T11:24:51.309Z,32.38
2019-02-28T11:25:52.987Z,32.56
2019-02-28T11:26:51.282Z,32.76
2019-02-28T11:27:53.728Z,31.46
2019-02-28T11:28:51.277Z,31.76
2019-02-28T11:29:51.249Z,31.55
2019-02-28T11:30:51.244Z,31.55
2019-02-28T11:31:54.263Z,31.73
2019-02-28T11:32:51.217Z,31.24
2019-02-28T11:33:51.221Z,31.22
2019-02-28T11:34:51.195Z,30.82
2019-02-28T11:35:51.189Z,31.32
2019-02-28T11:36:51.178Z,30.02
2019-02-28T11:37:51.162Z,30.11
2019-02-28T11:38:52.548Z,29.61
2019-02-28T11:39:51.141Z,29.81
2019-02-28T11:40:57.298Z,29.60
2019-02-28T11:41:52.610Z,29.00
2019-02-28T11:42:51.111Z,29.50
2019-02-28T11:43:51.107Z,29.20
2019-02-28T11:44:51.209Z,28.78
2019-02-28T11:45:51.071Z,28.58
2019-02-28T11:46:51.061Z,28.67
2019-02-28T11:47:51.057Z,28.67
2019-02-28T11:48:53.766Z,28.77
2019-02-28T11:49:51.042Z,28.46
2019-02-28T11:50:51.022Z,29.04
2019-02-28T11:51:53.060Z,29.14
2019-02-28T11:52:50.996Z,28.33
2019-02-28T11:53:50.983Z,27.73
2019-02-28T11:54:50.983Z,27.72
2019-02-28T11:55:53.279Z,27.82
2019-02-28T11:56:50.960Z,27.33
2019-02-28T11:57:50.941Z,27.01
2019-02-28T11:58:51.752Z,28.19
2019-02-28T11:59:50.933Z,27.30
2019-02-28T12:00:50.908Z,27.39
2019-02-28T12:01:50.905Z,27.19
2019-02-28T12:02:53.602Z,26.98
2019-02-28T12:03:50.878Z,26.78
2019-02-28T12:04:50.873Z,26.76
2019-02-28T12:05:51.360Z,26.95
2019-02-28T12:06:50.840Z,26.75
2019-02-28T12:07:50.832Z,27.15
2019-02-28T12:08:50.820Z,27.44
2019-02-28T12:09:51.461Z,26.84
2019-02-28T12:10:50.796Z,26.93
2019-02-28T12:11:50.785Z,26.84
2019-02-28T12:12:50.791Z,26.53
2019-02-28T12:13:51.714Z,26.13
2019-02-28T12:14:50.794Z,26.23
2019-02-28T12:15:50.746Z,26.62
2019-02-28T12:16:53.643Z,26.02
2019-02-28T12:17:50.718Z,25.72
2019-02-28T12:18:50.707Z,25.91
2019-02-28T12:19:51.345Z,26.31
2019-02-28T12:20:50.705Z,26.20
2019-02-28T12:21:50.677Z,26.01
2019-02-28T12:22:50.668Z,25.90
2019-02-28T12:23:50.654Z,25.60
2019-02-28T12:24:50.642Z,25.10
2019-02-28T12:25:50.645Z,25.09
2019-02-28T12:26:52.711Z,24.99
2019-02-28T12:27:50.609Z,24.90
2019-02-28T12:28:50.613Z,24.10
2019-02-28T12:29:50.596Z,24.79
2019-02-28T12:30:50.602Z,24.79
2019-02-28T12:31:50.565Z,24.88
2019-02-28T12:32:52.472Z,24.67
2019-02-28T12:33:53.375Z,24.79
2019-02-28T12:34:51.532Z,25.07
2019-02-28T12:35:50.536Z,24.39
2019-02-28T12:36:50.515Z,24.48
2019-02-28T12:37:53.867Z,24.77
2019-02-28T12:38:50.499Z,24.57
2019-02-28T12:39:50.482Z,25.28
2019-02-28T12:40:50.548Z,25.16
2019-02-28T12:41:50.460Z,25.57
2019-02-28T12:42:50.445Z,25.28
2019-02-28T12:43:50.434Z,24.67
2019-02-28T12:44:50.435Z,25.37
2019-02-28T12:45:50.426Z,24.87
2019-02-28T12:46:50.408Z,25.07
2019-02-28T12:47:50.392Z,24.77
2019-02-28T12:48:50.384Z,24.96
2019-02-28T12:49:50.371Z,24.66
2019-02-28T12:50:50.433Z,24.76
2019-02-28T12:51:50.350Z,24.85
2019-02-28T12:52:50.342Z,24.55